sensor_id;sensor_type;location;lat;lon;timestamp;temperature;humidity
19363;DHT22;9817;50.80926400;5.16316200;2024-01-25T00:00:21;10.10;99.90
19363;DHT22;9817;50.80926400;5.16316200;2024-01-25T00:02:47;10.10;99.90
19363;DHT22;9817;50.80926400;5.16316200;2024-01-25T00:05:12;10.10;99.90
19363;DHT22;9817;50.80926400;5.16316200;2024-01-25T00:07:48;10.10;99.90
19363;DHT22;9817;50.80926400;5.16316200;2024-01-25T00:10:16;10.20;99.90
19363;DHT22;9817;50.80926400;5.16316200;2024-01-25T00:12:41;10.10;99.90
19363;DHT22;9817;50.80926400;5.16316200;2024-01-25T00:15:08;10.10;99.90
19363;DHT22;9817;50.80926400;5.16316200;2024-01-25T00:17:34;10.00;99.90
19363;DHT22;9817;50.80926400;5.16316200;2024-01-25T00:20:00;10.00;99.90
19363;DHT22;9817;50.80926400;5.16316200;2024-01-25T00:22:25;10.00;99.90
19363;DHT22;9817;50.80926400;5.16316200;2024-01-25T00:24:51;10.10;99.90
19363;DHT22;9817;50.80926400;5.16316200;2024-01-25T00:27:17;10.00;99.90
19363;DHT22;9817;50.80926400;5.16316200;2024-01-25T00:29:42;9.90;99.90
19363;DHT22;9817;50.80926400;5.16316200;2024-01-25T00:32:09;9.90;99.90
19363;DHT22;9817;50.80926400;5.16316200;2024-01-25T00:34:35;9.80;99.90
19363;DHT22;9817;50.80926400;5.16316200;2024-01-25T00:37:01;9.80;99.90
19363;DHT22;9817;50.80926400;5.16316200;2024-01-25T00:39:26;9.80;99.90
19363;DHT22;9817;50.80926400;5.16316200;2024-01-25T00:42:03;9.80;99.90
19363;DHT22;9817;50.80926400;5.16316200;2024-01-25T00:44:30;9.90;99.90
19363;DHT22;9817;50.80926400;5.16316200;2024-01-25T00:46:56;9.80;99.90
19363;DHT22;9817;50.80926400;5.16316200;2024-01-25T00:49:22;9.70;99.90
19363;DHT22;9817;50.80926400;5.16316200;2024-01-25T00:51:48;9.70;99.90
19363;DHT22;9817;50.80926400;5.16316200;2024-01-25T00:54:15;9.70;99.90
19363;DHT22;9817;50.80926400;5.16316200;2024-01-25T00:56:41;9.70;99.90
19363;DHT22;9817;50.80926400;5.16316200;2024-01-25T00:59:06;9.70;99.90
19363;DHT22;9817;50.80926400;5.16316200;2024-01-25T01:01:32;9.80;99.90
19363;DHT22;9817;50.80926400;5.16316200;2024-01-25T01:03:59;9.70;99.90
19363;DHT22;9817;50.80926400;5.16316200;2024-01-25T01:06:25;9.70;99.90
19363;DHT22;9817;50.80926400;5.16316200;2024-01-25T01:08:51;9.70;99.90
19363;DHT22;9817;50.80926400;5.16316200;2024-01-25T01:11:18;9.80;99.90
19363;DHT22;9817;50.80926400;5.16316200;2024-01-25T01:13:44;9.70;99.90
19363;DHT22;9817;50.80926400;5.16316200;2024-01-25T01:16:10;9.80;99.90
19363;DHT22;9817;50.80926400;5.16316200;2024-01-25T01:18:35;9.90;99.90
19363;DHT22;9817;50.80926400;5.16316200;2024-01-25T01:21:02;9.90;99.90
19363;DHT22;9817;50.80926400;5.16316200;2024-01-25T01:23:27;9.90;99.90
19363;DHT22;9817;50.80926400;5.16316200;2024-01-25T01:25:53;9.90;99.90
19363;DHT22;9817;50.80926400;5.16316200;2024-01-25T01:28:18;9.80;99.90
19363;DHT22;9817;50.80926400;5.16316200;2024-01-25T01:30:44;9.90;99.90
19363;DHT22;9817;50.80926400;5.16316200;2024-01-25T01:33:11;9.80;99.90
19363;DHT22;9817;50.80926400;5.16316200;2024-01-25T01:35:37;9.70;99.90
19363;DHT22;9817;50.80926400;5.16316200;2024-01-25T01:38:02;9.70;99.90
19363;DHT22;9817;50.80926400;5.16316200;2024-01-25T01:40:28;9.60;99.90
19363;DHT22;9817;50.80926400;5.16316200;2024-01-25T01:43:00;9.50;99.90
19363;DHT22;9817;50.80926400;5.16316200;2024-01-25T01:45:26;9.50;99.90
19363;DHT22;9817;50.80926400;5.16316200;2024-01-25T01:47:53;9.50;99.90
19363;DHT22;9817;50.80926400;5.16316200;2024-01-25T01:50:18;9.40;99.90
19363;DHT22;9817;50.80926400;5.16316200;2024-01-25T01:52:45;9.40;99.90
19363;DHT22;9817;50.80926400;5.16316200;2024-01-25T01:55:12;9.30;99.90
19363;DHT22;9817;50.80926400;5.16316200;2024-01-25T01:57:38;9.30;99.90
19363;DHT22;9817;50.80926400;5.16316200;2024-01-25T02:00:07;9.30;99.90
19363;DHT22;9817;50.80926400;5.16316200;2024-01-25T02:02:34;9.30;99.90
19363;DHT22;9817;50.80926400;5.16316200;2024-01-25T02:04:59;9.20;99.90
19363;DHT22;9817;50.80926400;5.16316200;2024-01-25T02:07:26;9.20;99.90
19363;DHT22;9817;50.80926400;5.16316200;2024-01-25T02:09:51;9.20;99.90
19363;DHT22;9817;50.80926400;5.16316200;2024-01-25T02:12:17;9.20;99.90
19363;DHT22;9817;50.80926400;5.16316200;2024-01-25T02:14:43;9.10;99.90
19363;DHT22;9817;50.80926400;5.16316200;2024-01-25T02:17:08;8.90;99.90
19363;DHT22;9817;50.80926400;5.16316200;2024-01-25T02:19:34;8.90;99.90
19363;DHT22;9817;50.80926400;5.16316200;2024-01-25T02:22:01;8.80;99.90
19363;DHT22;9817;50.80926400;5.16316200;2024-01-25T02:24:29;8.80;99.90
19363;DHT22;9817;50.80926400;5.16316200;2024-01-25T02:26:55;8.70;99.90
19363;DHT22;9817;50.80926400;5.16316200;2024-01-25T02:29:21;8.80;99.90
19363;DHT22;9817;50.80926400;5.16316200;2024-01-25T02:31:47;8.70;99.90
19363;DHT22;9817;50.80926400;5.16316200;2024-01-25T02:34:12;8.70;99.90
19363;DHT22;9817;50.80926400;5.16316200;2024-01-25T02:36:38;8.60;99.90
19363;DHT22;9817;50.80926400;5.16316200;2024-01-25T02:39:04;8.60;99.90
19363;DHT22;9817;50.80926400;5.16316200;2024-01-25T02:41:31;8.50;99.90
19363;DHT22;9817;50.80926400;5.16316200;2024-01-25T02:43:56;8.50;99.90
19363;DHT22;9817;50.80926400;5.16316200;2024-01-25T02:46:23;8.50;99.90
19363;DHT22;9817;50.80926400;5.16316200;2024-01-25T02:48:49;8.40;99.90
19363;DHT22;9817;50.80926400;5.16316200;2024-01-25T02:51:14;8.40;99.90
19363;DHT22;9817;50.80926400;5.16316200;2024-01-25T02:53:40;8.40;99.90
19363;DHT22;9817;50.80926400;5.16316200;2024-01-25T02:56:06;8.30;99.90
19363;DHT22;9817;50.80926400;5.16316200;2024-01-25T02:58:33;8.20;99.90
19363;DHT22;9817;50.80926400;5.16316200;2024-01-25T03:00:58;8.20;99.90
19363;DHT22;9817;50.80926400;5.16316200;2024-01-25T03:03:24;8.30;99.90
19363;DHT22;9817;50.80926400;5.16316200;2024-01-25T03:05:51;8.30;99.90
19363;DHT22;9817;50.80926400;5.16316200;2024-01-25T03:08:17;8.30;99.90
19363;DHT22;9817;50.80926400;5.16316200;2024-01-25T03:10:43;8.30;99.90
19363;DHT22;9817;50.80926400;5.16316200;2024-01-25T03:13:09;8.30;99.90
19363;DHT22;9817;50.80926400;5.16316200;2024-01-25T03:15:34;8.20;99.90
19363;DHT22;9817;50.80926400;5.16316200;2024-01-25T03:18:00;8.20;99.90
19363;DHT22;9817;50.80926400;5.16316200;2024-01-25T03:20:26;8.20;99.90
19363;DHT22;9817;50.80926400;5.16316200;2024-01-25T03:22:52;8.20;99.90
19363;DHT22;9817;50.80926400;5.16316200;2024-01-25T03:25:17;8.20;99.90
19363;DHT22;9817;50.80926400;5.16316200;2024-01-25T03:27:43;8.10;99.90
19363;DHT22;9817;50.80926400;5.16316200;2024-01-25T03:30:09;8.10;99.90
19363;DHT22;9817;50.80926400;5.16316200;2024-01-25T03:32:36;8.00;99.90
19363;DHT22;9817;50.80926400;5.16316200;2024-01-25T03:35:01;7.90;99.90
19363;DHT22;9817;50.80926400;5.16316200;2024-01-25T03:37:27;7.90;99.90
19363;DHT22;9817;50.80926400;5.16316200;2024-01-25T03:39:53;7.90;99.90
19363;DHT22;9817;50.80926400;5.16316200;2024-01-25T03:42:19;7.80;99.90
19363;DHT22;9817;50.80926400;5.16316200;2024-01-25T03:44:44;7.80;99.90
19363;DHT22;9817;50.80926400;5.16316200;2024-01-25T03:47:11;7.80;99.90
19363;DHT22;9817;50.80926400;5.16316200;2024-01-25T03:49:37;7.70;99.90
19363;DHT22;9817;50.80926400;5.16316200;2024-01-25T03:52:04;7.80;99.90
19363;DHT22;9817;50.80926400;5.16316200;2024-01-25T03:54:30;7.80;99.90
19363;DHT22;9817;50.80926400;5.16316200;2024-01-25T03:56:55;7.80;99.90
19363;DHT22;9817;50.80926400;5.16316200;2024-01-25T03:59:21;7.70;99.90
19363;DHT22;9817;50.80926400;5.16316200;2024-01-25T04:01:47;7.50;99.90
19363;DHT22;9817;50.80926400;5.16316200;2024-01-25T04:04:14;7.50;99.90
19363;DHT22;9817;50.80926400;5.16316200;2024-01-25T04:06:44;7.50;99.90
19363;DHT22;9817;50.80926400;5.16316200;2024-01-25T04:09:13;7.50;99.90
19363;DHT22;9817;50.80926400;5.16316200;2024-01-25T04:11:39;7.50;99.90
19363;DHT22;9817;50.80926400;5.16316200;2024-01-25T04:14:05;7.50;99.90
19363;DHT22;9817;50.80926400;5.16316200;2024-01-25T04:16:31;7.50;99.90
19363;DHT22;9817;50.80926400;5.16316200;2024-01-25T04:18:57;7.50;99.90
19363;DHT22;9817;50.80926400;5.16316200;2024-01-25T04:21:22;7.50;99.90
19363;DHT22;9817;50.80926400;5.16316200;2024-01-25T04:23:48;7.40;99.90
19363;DHT22;9817;50.80926400;5.16316200;2024-01-25T04:26:15;7.40;99.90
19363;DHT22;9817;50.80926400;5.16316200;2024-01-25T04:28:42;7.40;99.90
19363;DHT22;9817;50.80926400;5.16316200;2024-01-25T04:31:07;7.40;99.90
19363;DHT22;9817;50.80926400;5.16316200;2024-01-25T04:33:33;7.40;99.90
19363;DHT22;9817;50.80926400;5.16316200;2024-01-25T04:35:59;7.40;99.90
19363;DHT22;9817;50.80926400;5.16316200;2024-01-25T04:38:25;7.30;99.90
19363;DHT22;9817;50.80926400;5.16316200;2024-01-25T04:40:51;7.30;99.90
19363;DHT22;9817;50.80926400;5.16316200;2024-01-25T04:43:16;7.30;99.90
19363;DHT22;9817;50.80926400;5.16316200;2024-01-25T04:45:42;7.30;99.90
19363;DHT22;9817;50.80926400;5.16316200;2024-01-25T04:48:08;7.20;99.90
19363;DHT22;9817;50.80926400;5.16316200;2024-01-25T04:50:33;7.20;99.90
19363;DHT22;9817;50.80926400;5.16316200;2024-01-25T04:53:01;7.20;99.90
19363;DHT22;9817;50.80926400;5.16316200;2024-01-25T04:55:27;7.10;99.90
19363;DHT22;9817;50.80926400;5.16316200;2024-01-25T04:57:53;6.90;99.90
19363;DHT22;9817;50.80926400;5.16316200;2024-01-25T05:00:21;6.90;99.90
19363;DHT22;9817;50.80926400;5.16316200;2024-01-25T05:02:47;7.00;99.90
19363;DHT22;9817;50.80926400;5.16316200;2024-01-25T05:05:13;7.10;99.90
19363;DHT22;9817;50.80926400;5.16316200;2024-01-25T05:07:39;7.00;99.90
19363;DHT22;9817;50.80926400;5.16316200;2024-01-25T05:10:05;7.00;99.90
19363;DHT22;9817;50.80926400;5.16316200;2024-01-25T05:12:31;6.90;99.90
19363;DHT22;9817;50.80926400;5.16316200;2024-01-25T05:14:57;7.00;99.90
19363;DHT22;9817;50.80926400;5.16316200;2024-01-25T05:17:23;7.00;99.90
19363;DHT22;9817;50.80926400;5.16316200;2024-01-25T05:19:49;6.90;99.90
19363;DHT22;9817;50.80926400;5.16316200;2024-01-25T05:22:14;6.90;99.90
19363;DHT22;9817;50.80926400;5.16316200;2024-01-25T05:24:40;6.90;99.90
19363;DHT22;9817;50.80926400;5.16316200;2024-01-25T05:27:06;6.90;99.90
19363;DHT22;9817;50.80926400;5.16316200;2024-01-25T05:29:31;6.80;99.90
19363;DHT22;9817;50.80926400;5.16316200;2024-01-25T05:31:57;6.70;99.90
19363;DHT22;9817;50.80926400;5.16316200;2024-01-25T05:34:23;6.70;99.90
19363;DHT22;9817;50.80926400;5.16316200;2024-01-25T05:36:49;6.70;99.90
19363;DHT22;9817;50.80926400;5.16316200;2024-01-25T05:39:15;6.70;99.90
19363;DHT22;9817;50.80926400;5.16316200;2024-01-25T05:41:40;6.80;99.90
19363;DHT22;9817;50.80926400;5.16316200;2024-01-25T05:44:06;6.80;99.90
19363;DHT22;9817;50.80926400;5.16316200;2024-01-25T05:46:32;6.70;99.90
19363;DHT22;9817;50.80926400;5.16316200;2024-01-25T05:48:57;6.70;99.90
19363;DHT22;9817;50.80926400;5.16316200;2024-01-25T05:51:23;6.70;99.90
19363;DHT22;9817;50.80926400;5.16316200;2024-01-25T05:53:49;6.80;99.90
19363;DHT22;9817;50.80926400;5.16316200;2024-01-25T05:56:14;6.70;99.90
19363;DHT22;9817;50.80926400;5.16316200;2024-01-25T05:58:40;6.60;99.90
19363;DHT22;9817;50.80926400;5.16316200;2024-01-25T06:01:07;6.60;99.90
19363;DHT22;9817;50.80926400;5.16316200;2024-01-25T06:03:32;6.50;99.90
19363;DHT22;9817;50.80926400;5.16316200;2024-01-25T06:05:58;6.50;99.90
19363;DHT22;9817;50.80926400;5.16316200;2024-01-25T06:08:23;6.50;99.90
19363;DHT22;9817;50.80926400;5.16316200;2024-01-25T06:10:49;6.50;99.90
19363;DHT22;9817;50.80926400;5.16316200;2024-01-25T06:13:15;6.50;99.90
19363;DHT22;9817;50.80926400;5.16316200;2024-01-25T06:15:41;6.40;99.90
19363;DHT22;9817;50.80926400;5.16316200;2024-01-25T06:18:06;6.50;99.90
19363;DHT22;9817;50.80926400;5.16316200;2024-01-25T06:20:32;6.40;99.90
19363;DHT22;9817;50.80926400;5.16316200;2024-01-25T06:22:58;6.30;99.90
19363;DHT22;9817;50.80926400;5.16316200;2024-01-25T06:25:24;6.20;99.90
19363;DHT22;9817;50.80926400;5.16316200;2024-01-25T06:27:49;6.10;99.90
19363;DHT22;9817;50.80926400;5.16316200;2024-01-25T06:30:15;6.20;99.90
19363;DHT22;9817;50.80926400;5.16316200;2024-01-25T06:32:41;6.20;99.90
19363;DHT22;9817;50.80926400;5.16316200;2024-01-25T06:35:07;6.20;99.90
19363;DHT22;9817;50.80926400;5.16316200;2024-01-25T06:37:33;6.00;99.90
19363;DHT22;9817;50.80926400;5.16316200;2024-01-25T06:39:58;6.00;99.90
19363;DHT22;9817;50.80926400;5.16316200;2024-01-25T06:42:24;6.10;99.90
19363;DHT22;9817;50.80926400;5.16316200;2024-01-25T06:44:50;6.00;99.90
19363;DHT22;9817;50.80926400;5.16316200;2024-01-25T06:47:15;6.00;99.90
19363;DHT22;9817;50.80926400;5.16316200;2024-01-25T06:49:41;6.10;99.90
19363;DHT22;9817;50.80926400;5.16316200;2024-01-25T06:52:07;6.20;99.90
19363;DHT22;9817;50.80926400;5.16316200;2024-01-25T06:54:32;6.10;99.90
19363;DHT22;9817;50.80926400;5.16316200;2024-01-25T06:56:58;6.20;99.90
19363;DHT22;9817;50.80926400;5.16316200;2024-01-25T06:59:23;6.10;99.90
19363;DHT22;9817;50.80926400;5.16316200;2024-01-25T07:01:49;6.20;99.90
19363;DHT22;9817;50.80926400;5.16316200;2024-01-25T07:04:15;6.10;99.90
19363;DHT22;9817;50.80926400;5.16316200;2024-01-25T07:06:41;6.00;99.90
19363;DHT22;9817;50.80926400;5.16316200;2024-01-25T07:09:07;6.00;99.90
19363;DHT22;9817;50.80926400;5.16316200;2024-01-25T07:11:32;6.10;99.90
19363;DHT22;9817;50.80926400;5.16316200;2024-01-25T07:13:58;6.10;99.90
19363;DHT22;9817;50.80926400;5.16316200;2024-01-25T07:16:24;6.20;99.90
19363;DHT22;9817;50.80926400;5.16316200;2024-01-25T07:18:49;6.30;99.90
19363;DHT22;9817;50.80926400;5.16316200;2024-01-25T07:21:15;6.40;99.90
19363;DHT22;9817;50.80926400;5.16316200;2024-01-25T07:23:41;6.40;99.90
19363;DHT22;9817;50.80926400;5.16316200;2024-01-25T07:26:07;6.30;99.90
19363;DHT22;9817;50.80926400;5.16316200;2024-01-25T07:28:32;6.40;99.90
19363;DHT22;9817;50.80926400;5.16316200;2024-01-25T07:30:58;6.40;99.90
19363;DHT22;9817;50.80926400;5.16316200;2024-01-25T07:33:24;6.20;99.90
19363;DHT22;9817;50.80926400;5.16316200;2024-01-25T07:35:50;6.30;99.90
19363;DHT22;9817;50.80926400;5.16316200;2024-01-25T07:38:16;6.40;99.90
19363;DHT22;9817;50.80926400;5.16316200;2024-01-25T07:40:42;6.40;99.90
19363;DHT22;9817;50.80926400;5.16316200;2024-01-25T07:43:07;6.10;99.90
19363;DHT22;9817;50.80926400;5.16316200;2024-01-25T07:45:33;6.10;99.90
19363;DHT22;9817;50.80926400;5.16316200;2024-01-25T07:47:59;6.20;99.90
19363;DHT22;9817;50.80926400;5.16316200;2024-01-25T07:50:25;6.30;99.90
19363;DHT22;9817;50.80926400;5.16316200;2024-01-25T07:52:50;6.40;99.90
19363;DHT22;9817;50.80926400;5.16316200;2024-01-25T07:55:16;6.20;99.90
19363;DHT22;9817;50.80926400;5.16316200;2024-01-25T07:57:42;6.10;99.90
19363;DHT22;9817;50.80926400;5.16316200;2024-01-25T08:00:08;6.10;99.90
19363;DHT22;9817;50.80926400;5.16316200;2024-01-25T08:02:37;6.10;99.90
19363;DHT22;9817;50.80926400;5.16316200;2024-01-25T08:05:25;6.10;99.90
19363;DHT22;9817;50.80926400;5.16316200;2024-01-25T08:07:51;6.10;99.90
19363;DHT22;9817;50.80926400;5.16316200;2024-01-25T08:10:17;6.20;99.90
19363;DHT22;9817;50.80926400;5.16316200;2024-01-25T08:12:42;6.20;99.90
19363;DHT22;9817;50.80926400;5.16316200;2024-01-25T08:15:11;6.20;99.90
19363;DHT22;9817;50.80926400;5.16316200;2024-01-25T08:17:38;6.20;99.90
19363;DHT22;9817;50.80926400;5.16316200;2024-01-25T08:20:04;6.30;99.90
19363;DHT22;9817;50.80926400;5.16316200;2024-01-25T08:22:31;6.30;99.90
19363;DHT22;9817;50.80926400;5.16316200;2024-01-25T08:24:57;6.50;99.90
19363;DHT22;9817;50.80926400;5.16316200;2024-01-25T08:27:24;6.70;99.90
19363;DHT22;9817;50.80926400;5.16316200;2024-01-25T08:29:49;6.80;99.90
19363;DHT22;9817;50.80926400;5.16316200;2024-01-25T08:32:15;6.90;99.90
19363;DHT22;9817;50.80926400;5.16316200;2024-01-25T08:34:41;7.00;99.90
19363;DHT22;9817;50.80926400;5.16316200;2024-01-25T08:37:07;7.10;99.90
19363;DHT22;9817;50.80926400;5.16316200;2024-01-25T08:39:32;7.10;99.90
19363;DHT22;9817;50.80926400;5.16316200;2024-01-25T08:41:58;7.10;99.90
19363;DHT22;9817;50.80926400;5.16316200;2024-01-25T08:44:27;7.10;99.90
19363;DHT22;9817;50.80926400;5.16316200;2024-01-25T08:46:53;7.10;99.90
19363;DHT22;9817;50.80926400;5.16316200;2024-01-25T08:49:19;7.10;99.90
19363;DHT22;9817;50.80926400;5.16316200;2024-01-25T08:51:44;7.30;99.90
19363;DHT22;9817;50.80926400;5.16316200;2024-01-25T08:54:10;7.40;99.90
19363;DHT22;9817;50.80926400;5.16316200;2024-01-25T08:56:36;7.50;99.90
19363;DHT22;9817;50.80926400;5.16316200;2024-01-25T08:59:01;7.70;99.90
19363;DHT22;9817;50.80926400;5.16316200;2024-01-25T09:01:27;7.60;99.90
19363;DHT22;9817;50.80926400;5.16316200;2024-01-25T09:03:53;7.70;99.90
19363;DHT22;9817;50.80926400;5.16316200;2024-01-25T09:06:19;7.80;99.90
19363;DHT22;9817;50.80926400;5.16316200;2024-01-25T09:08:45;7.90;99.90
19363;DHT22;9817;50.80926400;5.16316200;2024-01-25T09:11:10;7.90;99.90
19363;DHT22;9817;50.80926400;5.16316200;2024-01-25T09:13:36;7.90;99.90
19363;DHT22;9817;50.80926400;5.16316200;2024-01-25T09:16:01;8.00;99.90
19363;DHT22;9817;50.80926400;5.16316200;2024-01-25T09:18:27;8.00;99.90
19363;DHT22;9817;50.80926400;5.16316200;2024-01-25T09:20:53;8.20;99.90
19363;DHT22;9817;50.80926400;5.16316200;2024-01-25T09:23:18;8.50;99.90
19363;DHT22;9817;50.80926400;5.16316200;2024-01-25T09:25:45;8.50;99.90
19363;DHT22;9817;50.80926400;5.16316200;2024-01-25T09:28:11;8.60;99.90
19363;DHT22;9817;50.80926400;5.16316200;2024-01-25T09:30:38;8.30;99.90
19363;DHT22;9817;50.80926400;5.16316200;2024-01-25T09:33:05;8.30;99.90
19363;DHT22;9817;50.80926400;5.16316200;2024-01-25T09:35:31;8.30;99.90
19363;DHT22;9817;50.80926400;5.16316200;2024-01-25T09:37:56;8.40;99.90
19363;DHT22;9817;50.80926400;5.16316200;2024-01-25T09:40:22;8.40;99.90
19363;DHT22;9817;50.80926400;5.16316200;2024-01-25T09:42:48;8.40;99.90
19363;DHT22;9817;50.80926400;5.16316200;2024-01-25T09:45:17;8.60;99.90
19363;DHT22;9817;50.80926400;5.16316200;2024-01-25T09:47:46;8.80;99.90
19363;DHT22;9817;50.80926400;5.16316200;2024-01-25T09:50:12;8.80;99.90
19363;DHT22;9817;50.80926400;5.16316200;2024-01-25T09:52:44;8.80;99.90
19363;DHT22;9817;50.80926400;5.16316200;2024-01-25T09:55:15;8.90;99.90
19363;DHT22;9817;50.80926400;5.16316200;2024-01-25T09:57:46;8.80;99.90
19363;DHT22;9817;50.80926400;5.16316200;2024-01-25T10:00:14;8.90;99.90
19363;DHT22;9817;50.80926400;5.16316200;2024-01-25T10:02:41;8.80;99.90
19363;DHT22;9817;50.80926400;5.16316200;2024-01-25T10:05:07;8.70;99.90
19363;DHT22;9817;50.80926400;5.16316200;2024-01-25T10:07:39;9.10;99.90
19363;DHT22;9817;50.80926400;5.16316200;2024-01-25T10:10:08;9.00;99.90
19363;DHT22;9817;50.80926400;5.16316200;2024-01-25T10:12:34;9.10;99.90
19363;DHT22;9817;50.80926400;5.16316200;2024-01-25T10:15:00;9.00;99.90
19363;DHT22;9817;50.80926400;5.16316200;2024-01-25T10:17:25;9.00;99.90
19363;DHT22;9817;50.80926400;5.16316200;2024-01-25T10:19:51;9.00;99.90
19363;DHT22;9817;50.80926400;5.16316200;2024-01-25T10:22:18;9.10;99.90
19363;DHT22;9817;50.80926400;5.16316200;2024-01-25T10:24:44;9.40;99.90
19363;DHT22;9817;50.80926400;5.16316200;2024-01-25T10:27:10;9.50;99.90
19363;DHT22;9817;50.80926400;5.16316200;2024-01-25T10:29:36;9.70;99.90
19363;DHT22;9817;50.80926400;5.16316200;2024-01-25T10:32:03;9.50;99.90
19363;DHT22;9817;50.80926400;5.16316200;2024-01-25T10:34:29;9.60;99.90
19363;DHT22;9817;50.80926400;5.16316200;2024-01-25T10:36:55;9.60;99.90
19363;DHT22;9817;50.80926400;5.16316200;2024-01-25T10:39:21;9.60;99.90
19363;DHT22;9817;50.80926400;5.16316200;2024-01-25T10:41:47;9.80;99.90
19363;DHT22;9817;50.80926400;5.16316200;2024-01-25T10:44:17;10.00;99.90
19363;DHT22;9817;50.80926400;5.16316200;2024-01-25T10:46:47;9.80;99.90
19363;DHT22;9817;50.80926400;5.16316200;2024-01-25T10:49:13;9.80;99.90
19363;DHT22;9817;50.80926400;5.16316200;2024-01-25T10:51:40;10.10;99.90
19363;DHT22;9817;50.80926400;5.16316200;2024-01-25T10:54:08;10.20;99.90
19363;DHT22;9817;50.80926400;5.16316200;2024-01-25T10:56:35;10.20;99.90
19363;DHT22;9817;50.80926400;5.16316200;2024-01-25T10:59:01;10.30;99.90
19363;DHT22;9817;50.80926400;5.16316200;2024-01-25T11:01:29;10.20;99.90
19363;DHT22;9817;50.80926400;5.16316200;2024-01-25T11:03:55;10.30;99.90
19363;DHT22;9817;50.80926400;5.16316200;2024-01-25T11:06:22;10.30;99.90
19363;DHT22;9817;50.80926400;5.16316200;2024-01-25T11:08:48;10.20;99.90
19363;DHT22;9817;50.80926400;5.16316200;2024-01-25T11:11:14;10.20;99.90
19363;DHT22;9817;50.80926400;5.16316200;2024-01-25T11:13:42;10.10;99.90
19363;DHT22;9817;50.80926400;5.16316200;2024-01-25T11:16:18;10.30;99.90
19363;DHT22;9817;50.80926400;5.16316200;2024-01-25T11:18:51;10.50;99.90
19363;DHT22;9817;50.80926400;5.16316200;2024-01-25T11:21:41;10.60;99.90
19363;DHT22;9817;50.80926400;5.16316200;2024-01-25T11:24:19;10.90;99.90
19363;DHT22;9817;50.80926400;5.16316200;2024-01-25T11:26:46;10.80;99.90
19363;DHT22;9817;50.80926400;5.16316200;2024-01-25T11:29:16;10.70;99.90
19363;DHT22;9817;50.80926400;5.16316200;2024-01-25T11:31:46;10.80;99.90
19363;DHT22;9817;50.80926400;5.16316200;2024-01-25T11:34:12;10.80;99.90
19363;DHT22;9817;50.80926400;5.16316200;2024-01-25T11:36:38;10.90;99.90
19363;DHT22;9817;50.80926400;5.16316200;2024-01-25T11:39:04;11.10;99.90
19363;DHT22;9817;50.80926400;5.16316200;2024-01-25T11:41:32;11.10;99.90
19363;DHT22;9817;50.80926400;5.16316200;2024-01-25T11:43:58;11.20;99.90
19363;DHT22;9817;50.80926400;5.16316200;2024-01-25T11:46:25;11.00;99.90
19363;DHT22;9817;50.80926400;5.16316200;2024-01-25T11:48:51;11.20;99.90
19363;DHT22;9817;50.80926400;5.16316200;2024-01-25T11:51:17;11.20;99.90
19363;DHT22;9817;50.80926400;5.16316200;2024-01-25T11:53:42;11.20;99.90
19363;DHT22;9817;50.80926400;5.16316200;2024-01-25T11:56:14;11.10;99.90
19363;DHT22;9817;50.80926400;5.16316200;2024-01-25T11:58:42;11.20;99.90
19363;DHT22;9817;50.80926400;5.16316200;2024-01-25T12:01:08;11.20;99.90
19363;DHT22;9817;50.80926400;5.16316200;2024-01-25T12:03:35;11.10;99.90
19363;DHT22;9817;50.80926400;5.16316200;2024-01-25T12:06:05;11.20;99.90
19363;DHT22;9817;50.80926400;5.16316200;2024-01-25T12:08:33;11.20;99.90
19363;DHT22;9817;50.80926400;5.16316200;2024-01-25T12:11:09;11.40;99.90
19363;DHT22;9817;50.80926400;5.16316200;2024-01-25T12:13:41;11.50;99.90
19363;DHT22;9817;50.80926400;5.16316200;2024-01-25T12:16:08;11.50;99.90
19363;DHT22;9817;50.80926400;5.16316200;2024-01-25T12:18:34;11.40;99.90
19363;DHT22;9817;50.80926400;5.16316200;2024-01-25T12:21:04;11.40;99.90
19363;DHT22;9817;50.80926400;5.16316200;2024-01-25T12:23:39;11.40;99.90
19363;DHT22;9817;50.80926400;5.16316200;2024-01-25T12:26:09;11.60;99.90
19363;DHT22;9817;50.80926400;5.16316200;2024-01-25T12:28:36;11.70;99.90
19363;DHT22;9817;50.80926400;5.16316200;2024-01-25T12:31:04;11.80;99.90
19363;DHT22;9817;50.80926400;5.16316200;2024-01-25T12:33:30;11.60;99.90
19363;DHT22;9817;50.80926400;5.16316200;2024-01-25T12:35:56;11.40;99.90
19363;DHT22;9817;50.80926400;5.16316200;2024-01-25T12:38:22;11.40;99.90
19363;DHT22;9817;50.80926400;5.16316200;2024-01-25T12:40:49;11.60;99.90
19363;DHT22;9817;50.80926400;5.16316200;2024-01-25T12:43:16;11.60;99.90
19363;DHT22;9817;50.80926400;5.16316200;2024-01-25T12:45:42;11.40;99.90
19363;DHT22;9817;50.80926400;5.16316200;2024-01-25T12:48:09;11.30;99.90
19363;DHT22;9817;50.80926400;5.16316200;2024-01-25T12:50:35;11.30;99.90
19363;DHT22;9817;50.80926400;5.16316200;2024-01-25T12:53:01;11.20;99.90
19363;DHT22;9817;50.80926400;5.16316200;2024-01-25T12:55:28;11.00;99.90
19363;DHT22;9817;50.80926400;5.16316200;2024-01-25T12:57:54;10.80;99.90
19363;DHT22;9817;50.80926400;5.16316200;2024-01-25T13:00:22;10.70;99.90
19363;DHT22;9817;50.80926400;5.16316200;2024-01-25T13:02:48;11.00;99.90
19363;DHT22;9817;50.80926400;5.16316200;2024-01-25T13:05:14;10.90;99.90
19363;DHT22;9817;50.80926400;5.16316200;2024-01-25T13:07:40;10.80;99.90
19363;DHT22;9817;50.80926400;5.16316200;2024-01-25T13:10:06;10.80;99.90
19363;DHT22;9817;50.80926400;5.16316200;2024-01-25T13:12:32;10.90;99.90
19363;DHT22;9817;50.80926400;5.16316200;2024-01-25T13:14:57;10.90;99.90
19363;DHT22;9817;50.80926400;5.16316200;2024-01-25T13:17:23;10.80;99.90
19363;DHT22;9817;50.80926400;5.16316200;2024-01-25T13:19:50;10.90;99.90
19363;DHT22;9817;50.80926400;5.16316200;2024-01-25T13:22:16;10.90;99.90
19363;DHT22;9817;50.80926400;5.16316200;2024-01-25T13:24:50;10.80;99.90
19363;DHT22;9817;50.80926400;5.16316200;2024-01-25T13:27:15;10.70;99.90
19363;DHT22;9817;50.80926400;5.16316200;2024-01-25T13:29:41;10.80;99.90
19363;DHT22;9817;50.80926400;5.16316200;2024-01-25T13:32:08;10.80;99.90
19363;DHT22;9817;50.80926400;5.16316200;2024-01-25T13:34:34;10.90;99.90
19363;DHT22;9817;50.80926400;5.16316200;2024-01-25T13:36:59;11.00;99.90